Time;durP1;ratioP1;P1;durP2;ratioP2;P2;SDS_P1;SDS_P2;PMS_P1;PMS_P2;Temp;Humidity;BMP_temperature;BMP_pressure;BME280_temperature;BME280_humidity;BME280_pressure;Samples;Min_cycle;Max_cycle;Signal;HPM_P1;HPM_P2
2022/12/06 00:00:19;;;;;;;13.93;5.97;;;;;;;16.28;100.00;101812.19;2095059;28;20083;-79
2022/12/06 00:01:44;;;;;;;10.73;5.75;;;;;;;16.23;100.00;101803.25;2095136;28;20140;-79
2022/12/06 00:03:06;;;;;;;11.98;6.18;;;;;;;16.19;100.00;101801.47;2095979;28;20523;-79
2022/12/06 00:04:28;;;;;;;11.70;6.50;;;;;;;16.16;100.00;101804.97;2096751;28;20044;-79
2022/12/06 00:05:51;;;;;;;12.13;7.15;;;;;;;16.16;100.00;101806.75;2100875;28;20044;-79
2022/12/06 00:07:13;;;;;;;11.13;6.22;;;;;;;16.16;100.00;101809.41;2086674;28;20053;-79
2022/12/06 00:08:36;;;;;;;10.02;6.28;;;;;;;16.16;100.00;101807.63;2090306;28;20052;-79
2022/12/06 00:09:57;;;;;;;9.35;5.35;;;;;;;16.18;100.00;101802.34;2095305;28;20142;-79
2022/12/06 00:11:23;;;;;;;10.48;5.75;;;;;;;16.18;100.00;101805.00;2092804;28;20048;-79
2022/12/06 00:12:44;;;;;;;15.82;6.13;;;;;;;16.16;100.00;101802.31;2095379;28;20044;-79
2022/12/06 00:14:08;;;;;;;10.50;5.63;;;;;;;16.16;100.00;101802.31;2094740;28;20052;-79
2022/12/06 00:15:29;;;;;;;11.10;5.78;;;;;;;16.14;100.00;101801.44;2086988;28;20055;-79
2022/12/06 00:16:52;;;;;;;13.27;5.78;;;;;;;16.13;100.00;101802.31;2087034;28;20559;-79
2022/12/06 00:18:13;;;;;;;16.52;6.47;;;;;;;16.13;100.00;101798.75;2093362;28;20063;-79
2022/12/06 00:19:36;;;;;;;10.35;6.53;;;;;;;16.13;100.00;101793.41;2094979;28;20043;-79
2022/12/06 00:21:06;;;;;;;11.82;6.05;;;;;;;16.12;100.00;101792.50;2089070;28;20053;-79
2022/12/06 00:22:28;;;;;;;10.15;5.28;;;;;;;16.09;100.00;101791.56;2093635;28;20424;-78
2022/12/06 00:23:51;;;;;;;12.80;6.68;;;;;;;16.06;100.00;101796.91;2094919;28;20040;-78
2022/12/06 00:25:13;;;;;;;15.50;6.60;;;;;;;16.02;100.00;101785.28;2095432;28;20139;-79
2022/12/06 00:26:38;;;;;;;10.63;5.80;;;;;;;16.00;100.00;101789.75;2094675;28;20040;-78
2022/12/06 00:28:00;;;;;;;12.82;5.50;;;;;;;15.99;100.00;101792.38;2087243;28;20080;-79
2022/12/06 00:29:23;;;;;;;11.85;6.03;;;;;;;15.98;100.00;101787.94;2086875;28;20064;-79
2022/12/06 00:30:46;;;;;;;9.73;5.60;;;;;;;15.98;100.00;101798.56;2092658;28;20044;-78
2022/12/06 00:32:08;;;;;;;9.40;5.03;;;;;;;15.98;100.00;101790.59;2094804;28;20064;-79
2022/12/06 00:33:30;;;;;;;10.15;5.07;;;;;;;15.95;100.00;101789.66;2089878;28;20044;-78
2022/12/06 00:34:53;;;;;;;9.27;5.45;;;;;;;15.92;100.00;101792.31;2100603;28;20554;-78
2022/12/06 00:36:16;;;;;;;10.48;5.82;;;;;;;15.89;100.00;101794.94;2095153;28;20446;-79
2022/12/06 00:37:38;;;;;;;11.60;5.85;;;;;;;15.82;100.00;101790.41;2092726;28;20480;-79
2022/12/06 00:39:00;;;;;;;7.88;5.00;;;;;;;15.79;100.00;101794.84;2092386;28;20388;-79
2022/12/06 00:40:22;;;;;;;9.65;5.30;;;;;;;15.77;100.00;101796.56;2103197;28;20054;-79
2022/12/06 00:41:45;;;;;;;14.50;5.70;;;;;;;15.78;100.00;101793.03;2095070;28;20488;-78
2022/12/06 00:43:08;;;;;;;11.50;5.50;;;;;;;15.76;100.00;101793.03;2085733;28;20083;-79
2022/12/06 00:44:29;;;;;;;9.60;5.10;;;;;;;15.76;100.00;101795.69;2093297;28;20134;-79
2022/12/06 00:45:52;;;;;;;10.25;5.55;;;;;;;15.76;100.00;101795.69;2103232;28;20048;-79
2022/12/06 00:47:14;;;;;;;12.25;5.93;;;;;;;15.80;100.00;101796.63;2091463;28;20102;-79
2022/12/06 00:48:35;;;;;;;12.30;6.20;;;;;;;15.82;100.00;101794.84;2092451;28;20474;-79
2022/12/06 00:49:58;;;;;;;14.20;5.30;;;;;;;15.84;100.00;101795.78;2096153;28;20091;-79
2022/12/06 00:51:21;;;;;;;13.90;5.68;;;;;;;15.85;100.00;101787.81;2086695;28;20063;-78
2022/12/06 00:52:43;;;;;;;11.25;5.25;;;;;;;15.88;100.00;101787.81;2092715;28;20052;-79
2022/12/06 00:54:06;;;;;;;14.80;6.63;;;;;;;15.89;100.00;101788.72;2078340;28;20053;-79
2022/12/06 00:55:27;;;;;;;9.90;5.38;;;;;;;15.90;100.00;101788.75;2090139;28;20049;-79
2022/12/06 00:56:51;;;;;;;11.43;6.10;;;;;;;15.92;100.00;101783.44;2094736;28;20110;-79
2022/12/06 00:58:13;;;;;;;9.63;5.25;;;;;;;15.92;100.00;101780.78;2090714;28;20503;-79
2022/12/06 00:59:35;;;;;;;9.73;4.95;;;;;;;15.91;100.00;101786.97;2075772;28;20046;-79
2022/12/06 01:01:08;;;;;;;8.80;4.95;;;;;;;15.89;100.00;101789.59;2081460;28;20041;-79
2022/12/06 01:02:31;;;;;;;7.93;4.90;;;;;;;15.85;100.00;101785.13;2103222;28;20047;-80
2022/12/06 01:03:54;;;;;;;8.95;4.28;;;;;;;15.82;100.00;101787.75;2096928;28;20416;-80
2022/12/06 01:05:16;;;;;;;10.60;4.90;;;;;;;15.78;100.00;101783.28;2095092;28;20048;-79
2022/12/06 01:06:39;;;;;;;8.73;4.75;;;;;;;15.76;100.00;101777.03;2095225;28;20032;-79
2022/12/06 01:08:00;;;;;;;9.50;5.53;;;;;;;15.74;100.00;101775.25;2102875;28;20044;-79
2022/12/06 01:09:23;;;;;;;8.15;5.45;;;;;;;15.68;100.00;101776.09;2098940;28;20036;-79
2022/12/06 01:10:52;;;;;;;9.55;5.20;;;;;;;15.68;100.00;101781.41;2096956;28;20093;-79
2022/12/06 01:12:15;;;;;;;12.38;5.47;;;;;;;15.69;100.00;101780.50;2087187;28;20099;-79
2022/12/06 01:13:39;;;;;;;7.50;4.53;;;;;;;15.69;100.00;101783.19;2088523;28;20128;-79
2022/12/06 01:15:01;;;;;;;8.50;5.18;;;;;;;15.69;100.00;101779.63;2088654;28;20044;-79
2022/12/06 01:16:26;;;;;;;8.32;4.38;;;;;;;15.68;100.00;101781.41;2086336;28;20149;-79
2022/12/06 01:17:47;;;;;;;11.52;4.85;;;;;;;15.65;100.00;101780.47;2099604;28;20109;-78
2022/12/06 01:19:12;;;;;;;10.00;5.65;;;;;;;15.61;100.00;101784.00;2094707;28;20053;-80
2022/12/06 01:20:34;;;;;;;12.73;4.95;;;;;;;15.56;100.00;101775.06;2102996;28;20129;-78
2022/12/06 01:21:56;;;;;;;12.82;4.95;;;;;;;15.53;100.00;101776.81;2097556;28;20139;-80
2022/12/06 01:23:17;;;;;;;10.15;4.95;;;;;;;15.51;100.00;101775.84;2086958;28;20048;-79
2022/12/06 01:24:40;;;;;;;9.23;4.65;;;;;;;15.50;100.00;101774.06;2083362;28;20072;-79
2022/12/06 01:26:01;;;;;;;9.00;5.03;;;;;;;15.48;100.00;101767.84;2094608;28;20068;-78
2022/12/06 01:27:26;;;;;;;10.25;5.43;;;;;;;15.46;100.00;101764.28;2094589;28;20052;-79
2022/12/06 01:28:47;;;;;;;7.70;4.32;;;;;;;15.48;100.00;101769.63;2086375;28;20048;-75
2022/12/06 01:30:11;;;;;;;10.07;4.60;;;;;;;15.47;100.00;101765.16;2091699;28;20049;-79
2022/12/06 01:31:34;;;;;;;12.90;4.28;;;;;;;15.44;100.00;101771.34;2096636;28;20138;-79
2022/12/06 01:32:55;;;;;;;8.18;4.85;;;;;;;15.42;100.00;101772.22;2093760;28;20048;-79
2022/12/06 01:34:17;;;;;;;9.27;5.45;;;;;;;15.40;100.00;101768.63;2096668;28;21888;-78
2022/12/06 01:35:40;;;;;;;8.48;4.90;;;;;;;15.41;100.00;101771.31;2096163;28;20052;-78
2022/12/06 01:37:02;;;;;;;9.50;4.70;;;;;;;15.42;100.00;101764.22;2102812;28;20068;-78
2022/12/06 01:38:23;;;;;;;9.52;4.63;;;;;;;15.42;100.00;101766.88;2094201;28;20052;-78
2022/12/06 01:39:46;;;;;;;10.02;5.18;;;;;;;15.44;100.00;101767.78;2091620;28;20502;-78
2022/12/06 01:41:07;;;;;;;7.53;4.60;;;;;;;15.45;100.00;101766.91;2099289;28;20089;-78
2022/12/06 01:42:31;;;;;;;9.55;4.82;;;;;;;15.46;100.00;101766.03;2102563;28;20063;-78
2022/12/06 01:43:53;;;;;;;9.57;5.18;;;;;;;15.46;100.00;101758.06;2094474;28;20056;-78
2022/12/06 01:45:15;;;;;;;12.75;5.25;;;;;;;15.48;100.00;101764.28;2091727;28;20040;-78
2022/12/06 01:46:40;;;;;;;9.07;5.50;;;;;;;15.51;100.00;101764.31;2097030;28;20058;-80
2022/12/06 01:48:03;;;;;;;10.93;5.57;;;;;;;15.51;100.00;101765.22;2094812;28;20139;-79
2022/12/06 01:49:35;;;;;;;11.10;5.07;;;;;;;15.54;100.00;101761.72;2103015;28;20040;-79
2022/12/06 01:50:58;;;;;;;8.73;5.13;;;;;;;15.57;100.00;101758.19;2095693;28;20089;-80
2022/12/06 01:52:24;;;;;;;8.55;4.43;;;;;;;15.59;100.00;101760.00;2095438;28;20461;-80
2022/12/06 01:53:50;;;;;;;13.35;5.57;;;;;;;15.61;100.00;101760.03;2088881;28;20044;-79
2022/12/06 01:55:15;;;;;;;7.38;4.57;;;;;;;15.62;100.00;101760.03;2092936;28;20044;-79
2022/12/06 01:56:41;;;;;;;8.80;4.18;;;;;;;15.62;100.00;101754.69;2094640;28;20041;-78
2022/12/06 01:58:09;;;;;;;9.32;5.20;;;;;;;15.63;100.00;101751.16;2094700;28;20139;-79
2022/12/06 01:59:32;;;;;;;9.38;4.38;;;;;;;15.63;100.00;101751.16;2088090;28;20532;-79
2022/12/06 02:00:55;;;;;;;7.00;3.90;;;;;;;15.64;100.00;101755.63;2089086;28;20053;-79
2022/12/06 02:02:17;;;;;;;6.70;4.10;;;;;;;15.66;100.00;101756.53;2094377;28;20090;-78
2022/12/06 02:03:48;;;;;;;10.55;4.35;;;;;;;15.68;100.00;101746.81;2086432;28;20048;-79
2022/12/06 02:05:14;;;;;;;9.45;4.05;;;;;;;15.67;100.00;101745.03;2095681;28;20629;-79
2022/12/06 02:06:41;;;;;;;9.10;4.38;;;;;;;15.68;100.00;101744.16;2093748;28;20051;-79
2022/12/06 02:08:04;;;;;;;8.00;3.70;;;;;;;15.71;100.00;101748.59;2096759;28;20059;-78
2022/12/06 02:09:28;;;;;;;7.55;4.00;;;;;;;15.72;100.00;101748.63;2094373;28;20452;-78
2022/12/06 02:10:50;;;;;;;6.88;3.63;;;;;;;15.74;100.00;101738.88;2086216;28;20460;-78
2022/12/06 02:12:14;;;;;;;7.25;3.40;;;;;;;15.74;100.00;101736.22;2083224;28;20053;-77
2022/12/06 02:13:38;;;;;;;8.32;3.80;;;;;;;15.75;100.00;101737.13;2079348;28;20033;-81
2022/12/06 02:15:00;;;;;;;8.63;3.47;;;;;;;15.72;100.00;101732.63;2086530;28;20078;-79
2022/12/06 02:16:48;;;;;;;8.98;3.10;;;;;;;15.71;100.00;101733.50;2080408;28;20042;-78
2022/12/06 02:18:17;;;;;;;9.32;3.53;;;;;;;15.65;100.00;101729.91;2080448;28;20094;-79
2022/12/06 02:19:57;;;;;;;5.80;3.33;;;;;;;15.59;100.00;101728.06;2077210;28;20140;-78
2022/12/06 02:21:32;;;;;;;9.30;3.00;;;;;;;15.52;100.00;101734.16;2079960;28;20072;-78
2022/12/06 02:23:21;;;;;;;7.47;3.33;;;;;;;15.46;100.00;101726.13;2086909;28;20493;-78
2022/12/06 02:25:06;;;;;;;7.95;3.20;;;;;;;15.42;100.00;101721.66;2089362;28;20509;-79
2022/12/06 02:26:36;;;;;;;7.95;3.50;;;;;;;15.43;100.00;101720.75;2079118;28;20107;-79
2022/12/06 02:28:19;;;;;;;8.25;3.55;;;;;;;15.44;100.00;101715.44;2076408;28;20049;-79
2022/12/06 02:30:08;;;;;;;9.07;3.08;;;;;;;15.46;100.00;101723.44;2088316;28;20078;-78
2022/12/06 02:31:37;;;;;;;7.60;3.38;;;;;;;15.50;100.00;101723.50;2080140;28;20107;-79
2022/12/06 02:33:04;;;;;;;9.95;3.28;;;;;;;15.51;100.00;101714.63;2077009;28;20079;-81
2022/12/06 02:34:32;;;;;;;6.03;3.10;;;;;;;15.55;100.00;101720.94;2084422;28;20045;-81
2022/12/06 02:36:04;;;;;;;5.93;3.47;;;;;;;15.57;100.00;101713.84;2088575;28;20117;-81
2022/12/06 02:37:34;;;;;;;6.03;3.53;;;;;;;15.58;100.00;101720.94;2095622;28;20051;-81
2022/12/06 02:38:59;;;;;;;6.00;3.28;;;;;;;15.57;100.00;101721.81;2093552;28;20052;-81
2022/12/06 02:40:28;;;;;;;10.35;4.07;;;;;;;15.54;100.00;101721.81;2088360;28;20068;-80
2022/12/06 02:41:56;;;;;;;9.10;3.50;;;;;;;15.51;100.00;101716.41;2078432;28;20585;-80
2022/12/06 02:43:27;;;;;;;8.05;4.32;;;;;;;15.51;100.00;101721.72;2085979;28;20044;-79
2022/12/06 02:44:54;;;;;;;9.23;4.05;;;;;;;15.48;100.00;101719.94;2085906;28;20053;-78
2022/12/06 02:46:18;;;;;;;6.97;4.10;;;;;;;15.46;100.00;101723.44;2094487;28;20048;-78
2022/12/06 02:47:45;;;;;;;10.10;4.65;;;;;;;15.44;100.00;101717.22;2080262;28;20033;-78
2022/12/06 02:49:08;;;;;;;11.60;4.03;;;;;;;15.41;100.00;101715.44;2080802;28;20049;-79
2022/12/06 02:50:37;;;;;;;7.15;3.67;;;;;;;15.41;100.00;101722.53;2091644;28;20492;-78
2022/12/06 02:51:58;;;;;;;7.70;3.50;;;;;;;15.38;100.00;101717.16;2086706;28;20653;-78
2022/12/06 02:53:25;;;;;;;10.13;3.55;;;;;;;15.41;100.00;101723.41;2083043;28;20048;-79
2022/12/06 02:55:13;;;;;;;6.32;3.17;;;;;;;15.42;100.00;101716.31;2081021;28;20420;-79
2022/12/06 02:56:36;;;;;;;8.93;3.25;;;;;;;15.45;100.00;101713.69;2088312;28;20033;-78
2022/12/06 02:57:57;;;;;;;8.48;2.88;;;;;;;15.48;100.00;101716.38;2083252;28;20098;-78
2022/12/06 02:59:20;;;;;;;7.20;3.00;;;;;;;15.50;100.00;101715.50;2077328;28;20055;-78
2022/12/06 03:00:45;;;;;;;6.25;2.95;;;;;;;15.53;100.00;101718.25;2082939;28;20057;-79
2022/12/06 03:02:11;;;;;;;5.97;3.15;;;;;;;15.57;100.00;101719.16;2086168;28;20048;-79
2022/12/06 03:03:57;;;;;;;8.80;2.95;;;;;;;15.60;100.00;101718.31;2086149;28;20045;-79
2022/12/06 03:05:28;;;;;;;7.07;3.33;;;;;;;15.61;100.00;101717.44;2080106;28;20057;-80
2022/12/06 03:07:16;;;;;;;7.10;3.00;;;;;;;15.59;100.00;101712.09;2085382;28;20144;-79
2022/12/06 03:08:46;;;;;;;5.47;2.65;;;;;;;15.60;100.00;101710.34;2089820;28;20140;-79
2022/12/06 03:10:27;;;;;;;6.55;2.15;;;;;;;15.59;100.00;101716.53;2080149;28;20052;-79
2022/12/06 03:11:54;;;;;;;7.28;2.55;;;;;;;15.57;100.00;101711.19;2089546;28;20548;-79
2022/12/06 03:13:24;;;;;;;7.25;2.78;;;;;;;15.55;100.00;101718.28;2091299;28;20104;-79
2022/12/06 03:15:00;;;;;;;8.35;3.38;;;;;;;15.52;100.00;101726.19;2098429;28;20032;-79
2022/12/06 03:16:27;;;;;;;6.78;3.25;;;;;;;15.47;100.00;101717.25;2097661;28;20059;-80
2022/12/06 03:17:52;;;;;;;8.90;3.05;;;;;;;15.43;100.00;101718.97;2095973;28;20045;-79
2022/12/06 03:19:19;;;;;;;7.13;3.13;;;;;;;15.42;100.00;101721.66;2108337;28;20101;-80
2022/12/06 03:20:46;;;;;;;8.38;2.95;;;;;;;15.41;100.00;101719.84;2106321;28;20384;-80
2022/12/06 03:22:14;;;;;;;9.40;3.53;;;;;;;15.39;100.00;101722.50;2104533;28;20047;-80
2022/12/06 03:23:40;;;;;;;9.23;3.40;;;;;;;15.37;100.00;101723.34;2104532;28;20040;-80
2022/12/06 03:25:04;;;;;;;7.30;3.40;;;;;;;15.38;100.00;101728.69;2098133;28;20444;-79
2022/12/06 03:26:33;;;;;;;5.88;2.60;;;;;;;15.41;100.00;101735.81;2101949;28;20040;-80
2022/12/06 03:27:56;;;;;;;6.95;2.67;;;;;;;15.44;100.00;101730.50;2089870;28;20192;-79
2022/12/06 03:29:24;;;;;;;5.22;2.47;;;;;;;15.48;100.00;101732.34;2094410;28;20052;-80
2022/12/06 03:30:48;;;;;;;6.57;2.53;;;;;;;15.50;100.00;101734.13;2095899;28;20036;-80
2022/12/06 03:32:15;;;;;;;8.05;2.65;;;;;;;15.53;100.00;101728.91;2100853;28;20047;-80
2022/12/06 03:33:47;;;;;;;7.45;3.38;;;;;;;15.56;100.00;101729.81;2104117;28;20449;-83
2022/12/06 03:35:17;;;;;;;8.50;2.90;;;;;;;15.57;100.00;101726.25;2097045;28;20572;-79
2022/12/06 03:36:41;;;;;;;4.22;2.40;;;;;;;15.57;100.00;101740.47;2102894;28;20439;-78
2022/12/06 03:38:10;;;;;;;6.38;2.75;;;;;;;15.57;100.00;101731.56;2103737;28;20086;-78
2022/12/06 03:39:39;;;;;;;8.50;3.53;;;;;;;15.54;100.00;101724.47;2096372;28;20056;-78
2022/12/06 03:41:05;;;;;;;8.93;3.53;;;;;;;15.51;100.00;101730.59;2095072;28;20052;-79
2022/12/06 03:42:28;;;;;;;7.47;3.20;;;;;;;15.47;100.00;101727.91;2087133;28;20047;-78
2022/12/06 03:43:50;;;;;;;6.57;3.15;;;;;;;15.45;100.00;101730.53;2092531;28;20041;-79
2022/12/06 03:45:13;;;;;;;6.10;2.78;;;;;;;15.45;100.00;101741.19;2081273;28;20529;-78
2022/12/06 03:46:38;;;;;;;6.45;2.67;;;;;;;15.46;100.00;101734.09;2085856;28;20040;-78
2022/12/06 03:48:06;;;;;;;8.73;3.00;;;;;;;15.48;100.00;101735.03;2093161;28;20048;-78
2022/12/06 03:49:35;;;;;;;6.00;2.92;;;;;;;15.49;100.00;101731.50;2096052;28;20048;-78
2022/12/06 03:51:04;;;;;;;6.78;2.83;;;;;;;15.49;100.00;101731.50;2087964;28;20462;-78
2022/12/06 03:52:28;;;;;;;6.60;2.72;;;;;;;15.51;100.00;101740.34;2095706;28;20538;-77
2022/12/06 03:53:54;;;;;;;7.10;2.75;;;;;;;15.50;100.00;101733.25;2087336;28;20048;-78
2022/12/06 03:55:15;;;;;;;8.90;2.90;;;;;;;15.51;100.00;101740.34;2085347;28;20075;-77
2022/12/06 03:56:38;;;;;;;6.45;2.95;;;;;;;15.51;100.00;101732.38;2095296;28;20045;-78
2022/12/06 03:58:00;;;;;;;7.55;2.70;;;;;;;15.50;100.00;101733.25;2087045;28;20538;-78
2022/12/06 03:59:22;;;;;;;7.78;2.75;;;;;;;15.50;100.00;101727.91;2102303;28;20047;-79
2022/12/06 04:00:43;;;;;;;6.18;2.85;;;;;;;15.51;100.00;101737.69;2102975;28;20092;-77
2022/12/06 04:02:06;;;;;;;6.20;2.35;;;;;;;15.52;100.00;101737.75;2097862;28;20540;-77
2022/12/06 04:03:28;;;;;;;5.10;2.45;;;;;;;15.51;100.00;101732.38;2081287;28;20119;-78
2022/12/06 04:04:50;;;;;;;5.63;2.30;;;;;;;15.49;100.00;101726.16;2092750;28;20048;-78
2022/12/06 04:06:14;;;;;;;5.93;2.75;;;;;;;15.49;100.00;101737.66;2086460;28;20045;-78
2022/12/06 04:07:37;;;;;;;6.45;2.92;;;;;;;15.52;100.00;101736.81;2100958;28;20628;-78
2022/12/06 04:10:35;;;;;;;7.25;3.63;;;;;;;15.54;100.00;101736.00;2088533;28;20074;-77
2022/12/06 04:11:58;;;;;;;7.55;2.88;;;;;;;15.57;100.00;101736.91;2092471;28;20045;-79
2022/12/06 04:13:20;;;;;;;7.82;3.13;;;;;;;15.58;100.00;101728.94;2098526;28;20064;-79
2022/12/06 04:14:41;;;;;;;9.02;3.28;;;;;;;15.60;100.00;101732.53;2106116;28;20115;-79
2022/12/06 04:18:09;;;;;;;9.18;3.85;;;;;;;15.61;100.00;101733.41;2097789;28;20377;-79
2022/12/06 04:19:26;;;;;;;7.57;2.80;;;;;;;15.60;100.00;101735.19;2089317;28;20071;-80
2022/12/06 04:24:10;;;;;;;7.93;3.20;;;;;;;15.58;100.00;101728.94;2105340;28;20671;-78
2022/12/06 04:25:33;;;;;;;7.50;2.90;;;;;;;15.58;100.00;101734.25;2102621;28;20488;-78
2022/12/06 04:28:40;;;;;;;6.30;2.28;;;;;;;15.57;100.00;101740.47;2103028;28;20081;-79
2022/12/06 04:38:41;;;;;;;7.70;2.78;;;;;;;15.38;100.00;101752.63;2100107;28;20041;-81
2022/12/06 04:40:04;;;;;;;7.13;2.88;;;;;;;15.40;100.00;101760.63;2087174;28;20049;-80
2022/12/06 04:44:46;;;;;;;5.75;2.42;;;;;;;15.46;100.00;101764.28;2097393;28;20059;-80
2022/12/06 04:46:07;;;;;;;4.30;2.30;;;;;;;15.49;100.00;101766.94;2093140;28;20117;-80
2022/12/06 04:47:30;;;;;;;8.05;2.35;;;;;;;15.49;100.00;101763.44;2089348;28;20159;-80
2022/12/06 04:48:51;;;;;;;5.53;2.58;;;;;;;15.47;100.00;101760.75;2100933;28;20036;-80
2022/12/06 04:50:13;;;;;;;4.32;1.95;;;;;;;15.47;100.00;101754.53;2089740;28;20107;-80
2022/12/06 04:51:35;;;;;;;5.45;2.03;;;;;;;15.47;100.00;101760.75;2095060;28;20040;-80
2022/12/06 04:52:57;;;;;;;7.03;2.05;;;;;;;15.48;100.00;101762.53;2089420;28;20045;-80
2022/12/06 04:54:20;;;;;;;6.72;1.40;;;;;;;15.48;100.00;101762.53;2100670;28;20168;-80
2022/12/06 04:55:46;;;;;;;5.43;1.58;;;;;;;15.50;100.00;101758.09;2097428;28;20044;-80
2022/12/06 04:57:09;;;;;;;9.02;2.00;;;;;;;15.51;100.00;101766.97;2096185;28;20430;-81
2022/12/06 04:58:31;;;;;;;4.90;2.15;;;;;;;15.52;100.00;101763.44;2096951;28;20142;-80
2022/12/06 04:59:53;;;;;;;21.55;10.43;;;;;;;15.51;100.00;101761.66;2094826;28;20080;-81
2022/12/06 05:01:14;;;;;;;19.77;8.82;;;;;;;15.49;100.00;101766.94;2095007;28;20082;-80
2022/12/06 05:02:37;;;;;;;38.88;19.55;;;;;;;15.49;100.00;101769.59;2097067;28;20044;-80
2022/12/06 05:03:58;;;;;;;59.88;27.25;;;;;;;15.49;100.00;101771.41;2089533;28;20053;-80
2022/12/06 05:05:20;;;;;;;20.30;9.68;;;;;;;15.47;100.00;101766.06;2094165;28;20044;-80
2022/12/06 05:06:42;;;;;;;12.13;4.03;;;;;;;15.46;100.00;101766.03;2094802;28;20051;-80
2022/12/06 05:08:05;;;;;;;7.20;3.78;;;;;;;15.42;100.00;101762.47;2094936;28;20045;-80
2022/12/06 05:09:29;;;;;;;7.97;4.05;;;;;;;15.38;100.00;101767.69;2095132;28;20052;-80
2022/12/06 05:10:51;;;;;;;9.95;5.80;;;;;;;15.33;100.00;101758.78;2100497;28;20097;-81
2022/12/06 05:12:13;;;;;;;9.27;5.43;;;;;;;15.30;100.00;101769.38;2096560;28;20163;-80
2022/12/06 05:13:35;;;;;;;6.13;3.83;;;;;;;15.28;100.00;101768.47;2086493;28;20041;-79
2022/12/06 05:14:57;;;;;;;4.38;3.00;;;;;;;15.24;100.00;101766.63;2086531;28;20060;-80
2022/12/06 05:16:19;;;;;;;5.07;2.80;;;;;;;15.22;100.00;101763.97;2092014;28;20044;-80
2022/12/06 05:17:41;;;;;;;7.45;3.22;;;;;;;15.22;100.00;101768.41;2094686;28;20040;-80
2022/12/06 05:19:02;;;;;;;9.93;7.18;;;;;;;15.21;100.00;101772.84;2094207;28;20561;-81
2022/12/06 05:20:25;;;;;;;10.43;7.38;;;;;;;15.21;100.00;101762.19;2094738;28;20075;-80
2022/12/06 05:21:46;;;;;;;17.25;14.88;;;;;;;15.21;100.00;101763.94;2086444;28;20077;-80
2022/12/06 05:23:09;;;;;;;12.00;8.98;;;;;;;15.20;100.00;101765.72;2083361;28;20144;-81
2022/12/06 05:24:33;;;;;;;12.55;9.77;;;;;;;15.22;100.00;101763.97;2080770;28;20626;-80
2022/12/06 05:25:57;;;;;;;9.23;5.65;;;;;;;15.22;100.00;101768.41;2090337;28;20048;-80
2022/12/06 05:27:19;;;;;;;11.73;6.07;;;;;;;15.21;100.00;101770.16;2086776;28;20049;-80
2022/12/06 05:28:41;;;;;;;11.25;3.20;;;;;;;15.22;100.00;101768.41;2091483;28;20051;-81
2022/12/06 05:30:04;;;;;;;5.57;2.13;;;;;;;15.21;100.00;101770.16;2094160;28;20139;-81
2022/12/06 05:31:29;;;;;;;6.85;2.95;;;;;;;15.21;100.00;101769.28;2093058;28;20117;-80
2022/12/06 05:32:50;;;;;;;7.63;3.53;;;;;;;15.21;100.00;101771.94;2093885;28;20048;-80
2022/12/06 05:34:13;;;;;;;5.55;2.28;;;;;;;15.23;100.00;101775.50;2086137;28;20077;-80
2022/12/06 05:35:34;;;;;;;6.30;2.42;;;;;;;15.26;100.00;101772.88;2083975;28;20106;-80
2022/12/06 05:36:57;;;;;;;6.03;3.03;;;;;;;15.27;100.00;101780.00;2091678;28;20052;-80
2022/12/06 05:38:19;;;;;;;6.80;3.20;;;;;;;15.26;100.00;101776.44;2094640;28;20052;-81
2022/12/06 05:39:43;;;;;;;9.32;4.85;;;;;;;15.27;100.00;101775.56;2084405;28;20041;-81
2022/12/06 05:41:05;;;;;;;9.73;4.72;;;;;;;15.28;100.00;101779.13;2088965;28;20431;-80
2022/12/06 05:42:27;;;;;;;9.10;4.43;;;;;;;15.28;100.00;101780.03;2085876;28;20053;-80
2022/12/06 05:43:50;;;;;;;7.97;3.85;;;;;;;15.27;100.00;101788.88;2092233;28;20044;-81
2022/12/06 05:45:12;;;;;;;6.45;3.53;;;;;;;15.27;100.00;101782.66;2086046;28;20144;-79
2022/12/06 05:46:35;;;;;;;8.65;4.18;;;;;;;15.25;100.00;101787.03;2083104;28;20052;-80
2022/12/06 05:47:57;;;;;;;8.00;3.47;;;;;;;15.26;100.00;101776.44;2085477;28;20055;-79
2022/12/06 05:49:20;;;;;;;6.45;2.92;;;;;;;15.27;100.00;101780.88;2083717;28;20045;-80
2022/12/06 05:50:41;;;;;;;4.57;2.58;;;;;;;15.27;100.00;101778.22;2082043;28;20060;-79
2022/12/06 05:52:04;;;;;;;7.65;3.42;;;;;;;15.28;100.00;101773.81;2099691;28;20491;-80
2022/12/06 05:53:27;;;;;;;10.68;4.57;;;;;;;15.28;100.00;101780.03;2091430;28;20053;-79
2022/12/06 05:54:51;;;;;;;10.30;5.75;;;;;;;15.27;100.00;101780.00;2086074;28;20049;-80
2022/12/06 05:56:14;;;;;;;11.15;5.68;;;;;;;15.25;100.00;101773.75;2086251;28;20059;-80
2022/12/06 05:57:35;;;;;;;7.60;4.95;;;;;;;15.24;100.00;101779.94;2093446;28;20056;-79
2022/12/06 05:58:58;;;;;;;12.57;11.23;;;;;;;15.23;100.00;101773.72;2088510;28;20433;-80
2022/12/06 06:00:20;;;;;;;17.88;13.63;;;;;;;15.25;100.00;101771.09;2086076;28;20090;-80
2022/12/06 06:01:44;;;;;;;15.30;13.70;;;;;;;15.26;100.00;101771.13;2091262;28;20048;-80
2022/12/06 06:03:07;;;;;;;23.33;20.85;;;;;;;15.29;100.00;101773.81;2080238;28;20046;-80
2022/12/06 06:04:28;;;;;;;22.23;16.73;;;;;;;15.31;100.00;101776.47;2089000;28;20045;-79
2022/12/06 06:05:51;;;;;;;17.60;13.68;;;;;;;15.32;100.00;101773.84;2093240;28;20040;-80
2022/12/06 06:07:14;;;;;;;17.30;12.90;;;;;;;15.39;100.00;101782.78;2099760;28;20044;-79
2022/12/06 06:08:36;;;;;;;10.90;8.18;;;;;;;15.46;100.00;101777.56;2097088;28;20447;-80
2022/12/06 06:10:00;;;;;;;9.85;6.88;;;;;;;15.55;100.00;101779.50;2084781;28;20056;-79
2022/12/06 06:11:22;;;;;;;5.53;3.00;;;;;;;15.61;100.00;101776.91;2091459;28;20439;-79
2022/12/06 06:12:45;;;;;;;3.80;1.65;;;;;;;15.66;100.00;101772.50;2085445;28;21354;-79
2022/12/06 06:14:08;;;;;;;5.07;1.95;;;;;;;15.71;100.00;101776.13;2080593;28;20049;-80
2022/12/06 06:15:32;;;;;;;3.92;1.70;;;;;;;15.74;100.00;101776.16;2086123;28;20379;-80
2022/12/06 06:16:55;;;;;;;6.93;1.92;;;;;;;15.78;100.00;101782.41;2090877;28;20147;-79
2022/12/06 06:18:18;;;;;;;5.63;1.55;;;;;;;15.84;100.00;101780.69;2087182;28;20055;-80
2022/12/06 06:19:39;;;;;;;4.53;1.77;;;;;;;15.92;100.00;101786.09;2088841;28;20037;-79
2022/12/06 06:21:02;;;;;;;10.27;5.15;;;;;;;15.97;100.00;101783.47;2090148;28;20088;-79
2022/12/06 06:22:25;;;;;;;7.20;4.68;;;;;;;15.99;100.00;101779.97;2084501;28;20045;-80
2022/12/06 06:23:47;;;;;;;7.10;3.00;;;;;;;15.99;100.00;101781.72;2085996;28;20052;-79
2022/12/06 06:25:11;;;;;;;4.82;1.98;;;;;;;16.01;100.00;101780.88;2090624;28;20070;-80
2022/12/06 06:26:34;;;;;;;7.22;2.53;;;;;;;16.06;100.00;101780.91;2100369;28;20044;-80
2022/12/06 06:27:56;;;;;;;6.38;1.92;;;;;;;16.11;100.00;101779.19;2094525;28;20044;-79
2022/12/06 06:29:18;;;;;;;5.50;1.60;;;;;;;16.15;100.00;101783.63;2092727;28;20044;-79
2022/12/06 06:30:41;;;;;;;4.85;1.58;;;;;;;16.17;100.00;101784.56;2084398;28;20037;-80
2022/12/06 06:32:02;;;;;;;6.45;1.92;;;;;;;16.19;100.00;101788.13;2083219;28;20872;-80
2022/12/06 06:33:25;;;;;;;5.32;2.50;;;;;;;16.18;100.00;101778.34;2077414;28;20049;-80
2022/12/06 06:34:48;;;;;;;6.10;2.30;;;;;;;16.17;100.00;101784.56;2090932;28;20053;-80
2022/12/06 06:36:10;;;;;;;9.38;3.50;;;;;;;16.15;100.00;101789.88;2084363;28;20463;-79
2022/12/06 06:37:32;;;;;;;6.32;2.33;;;;;;;16.17;100.00;101788.13;2080302;28;20477;-79
2022/12/06 06:38:54;;;;;;;8.35;4.22;;;;;;;16.22;100.00;101794.38;2085891;28;20204;-80
2022/12/06 06:40:19;;;;;;;11.93;8.52;;;;;;;16.27;100.00;101794.44;2079404;28;20041;-79
2022/12/06 06:41:40;;;;;;;10.18;7.53;;;;;;;16.27;100.00;101797.09;2090922;28;20094;-79
2022/12/06 06:43:16;;;;;;;9.27;6.95;;;;;;;16.25;100.00;101796.19;2094001;28;20102;-80
2022/12/06 06:44:39;;;;;;;13.63;10.43;;;;;;;16.22;100.00;101788.16;2085425;28;20056;-79
2022/12/06 06:46:05;;;;;;;13.23;7.55;;;;;;;16.20;100.00;101789.94;2083375;28;20049;-79
2022/12/06 06:47:27;;;;;;;14.55;9.52;;;;;;;16.15;100.00;101795.19;2085967;28;20414;-80